sensor_id;sensor_type;location;lat;lon;timestamp;pressure;altitude;pressure_sealevel;temperature;humidity
28510;BME280;15723;55.684;37.928;2023-01-16T00:01:25;100373.28;;;-1.61;74.32
28510;BME280;15723;55.684;37.928;2023-01-16T00:03:51;100359.16;;;-1.68;74.06
28510;BME280;15723;55.684;37.928;2023-01-16T00:06:18;100356.34;;;-1.54;74.62
28510;BME280;15723;55.684;37.928;2023-01-16T00:08:44;100360.06;;;-1.70;74.77
28510;BME280;15723;55.684;37.928;2023-01-16T00:11:11;100347.69;;;-1.76;74.87
28510;BME280;15723;55.684;37.928;2023-01-16T00:13:37;100353.91;;;-1.78;75.88
28510;BME280;15723;55.684;37.928;2023-01-16T00:16:04;100352.13;;;-1.76;74.75
28510;BME280;15723;55.684;37.928;2023-01-16T00:18:30;100359.97;;;-1.60;75.15
28510;BME280;15723;55.684;37.928;2023-01-16T00:20:56;100353.66;;;-1.48;75.28
28510;BME280;15723;55.684;37.928;2023-01-16T00:23:22;100346.75;;;-1.70;75.24
28510;BME280;15723;55.684;37.928;2023-01-16T00:25:49;100338.47;;;-1.37;74.93
28510;BME280;15723;55.684;37.928;2023-01-16T00:28:15;100337.75;;;-1.59;73.78
28510;BME280;15723;55.684;37.928;2023-01-16T00:30:41;100340.38;;;-1.52;74.70
28510;BME280;15723;55.684;37.928;2023-01-16T00:33:08;100338.63;;;-1.55;75.62
28510;BME280;15723;55.684;37.928;2023-01-16T00:35:35;100329.72;;;-1.51;74.31
28510;BME280;15723;55.684;37.928;2023-01-16T00:38:01;100335.03;;;-1.48;75.00
28510;BME280;15723;55.684;37.928;2023-01-16T00:40:28;100306.59;;;-1.44;74.06
28510;BME280;15723;55.684;37.928;2023-01-16T00:42:54;100327.06;;;-1.52;75.12
28510;BME280;15723;55.684;37.928;2023-01-16T00:45:20;100321.91;;;-1.72;77.27
28510;BME280;15723;55.684;37.928;2023-01-16T00:47:46;100309.25;;;-1.43;75.64
28510;BME280;15723;55.684;37.928;2023-01-16T00:50:12;100308.41;;;-1.48;76.98
28510;BME280;15723;55.684;37.928;2023-01-16T00:52:39;100296.59;;;-1.24;76.61
28510;BME280;15723;55.684;37.928;2023-01-16T00:55:05;100307.78;;;-1.80;74.81
28510;BME280;15723;55.684;37.928;2023-01-16T00:57:31;100307.53;;;-1.48;74.46
28510;BME280;15723;55.684;37.928;2023-01-16T00:59:57;100304.97;;;-1.64;74.98
28510;BME280;15723;55.684;37.928;2023-01-16T01:02:24;100315.50;;;-1.47;75.10
28510;BME280;15723;55.684;37.928;2023-01-16T01:04:50;100306.53;;;-1.38;75.63
28510;BME280;15723;55.684;37.928;2023-01-16T01:07:16;100299.53;;;-1.47;74.65
28510;BME280;15723;55.684;37.928;2023-01-16T01:09:42;100309.28;;;-1.49;76.95
28510;BME280;15723;55.684;37.928;2023-01-16T01:12:08;100295.06;;;-1.45;76.85
28510;BME280;15723;55.684;37.928;2023-01-16T01:14:34;100276.38;;;-1.42;75.71
28510;BME280;15723;55.684;37.928;2023-01-16T01:17:01;100298.50;;;-1.34;74.72
28510;BME280;15723;55.684;37.928;2023-01-16T01:19:27;100301.28;;;-1.49;75.60
28510;BME280;15723;55.684;37.928;2023-01-16T01:21:53;100295.97;;;-1.46;75.77
28510;BME280;15723;55.684;37.928;2023-01-16T01:24:20;100282.47;;;-1.31;76.59
28510;BME280;15723;55.684;37.928;2023-01-16T01:26:46;100300.41;;;-1.49;75.38
28510;BME280;15723;55.684;37.928;2023-01-16T01:29:12;100297.69;;;-1.40;75.91
28510;BME280;15723;55.684;37.928;2023-01-16T01:31:38;100288.97;;;-1.61;75.56
28510;BME280;15723;55.684;37.928;2023-01-16T01:34:04;100290.59;;;-1.43;76.91
28510;BME280;15723;55.684;37.928;2023-01-16T01:36:31;100284.44;;;-1.48;75.01
28510;BME280;15723;55.684;37.928;2023-01-16T01:38:57;100296.03;;;-1.55;77.40
28510;BME280;15723;55.684;37.928;2023-01-16T01:41:23;100275.56;;;-1.50;76.44
28510;BME280;15723;55.684;37.928;2023-01-16T01:43:52;100287.84;;;-1.35;75.24
28510;BME280;15723;55.684;37.928;2023-01-16T01:46:26;100274.63;;;-1.44;74.65
28510;BME280;15723;55.684;37.928;2023-01-16T01:48:58;100273.91;;;-1.63;75.52
28510;BME280;15723;55.684;37.928;2023-01-16T01:51:33;100280.09;;;-1.60;75.99
28510;BME280;15723;55.684;37.928;2023-01-16T01:54:06;100273.81;;;-1.54;77.37
28510;BME280;15723;55.684;37.928;2023-01-16T01:56:41;100272.94;;;-1.53;76.17
28510;BME280;15723;55.684;37.928;2023-01-16T01:59:15;100272.03;;;-1.52;76.16
28510;BME280;15723;55.684;37.928;2023-01-16T02:01:43;100258.94;;;-1.75;76.27
28510;BME280;15723;55.684;37.928;2023-01-16T02:04:13;100243.00;;;-1.78;76.52
28510;BME280;15723;55.684;37.928;2023-01-16T02:06:46;100245.47;;;-1.58;77.36
28510;BME280;15723;55.684;37.928;2023-01-16T02:09:14;100250.78;;;-1.58;77.27
28510;BME280;15723;55.684;37.928;2023-01-16T02:12:00;100243.66;;;-1.54;78.64
28510;BME280;15723;55.684;37.928;2023-01-16T02:14:34;100232.25;;;-1.67;77.37
28510;BME280;15723;55.684;37.928;2023-01-16T02:17:15;100241.16;;;-1.71;75.77
28510;BME280;15723;55.684;37.928;2023-01-16T02:20:18;100242.84;;;-1.63;76.90
28510;BME280;15723;55.684;37.928;2023-01-16T02:34:02;100240.06;;;-1.52;75.83
28510;BME280;15723;55.684;37.928;2023-01-16T02:47:25;100225.16;;;-1.68;77.23
28510;BME280;15723;55.684;37.928;2023-01-16T02:53:06;100223.53;;;-1.81;75.42
28510;BME280;15723;55.684;37.928;2023-01-16T02:55:42;100234.94;;;-1.69;75.63
28510;BME280;15723;55.684;37.928;2023-01-16T02:58:12;100204.13;;;-1.96;76.02
28510;BME280;15723;55.684;37.928;2023-01-16T03:00:54;100217.41;;;-1.93;78.40
28510;BME280;15723;55.684;37.928;2023-01-16T03:03:38;100218.97;;;-1.70;76.88
28510;BME280;15723;55.684;37.928;2023-01-16T03:06:24;100220.03;;;-1.90;77.62
28510;BME280;15723;55.684;37.928;2023-01-16T03:22:50;100196.00;;;-1.77;76.44
28510;BME280;15723;55.684;37.928;2023-01-16T03:26:01;100189.84;;;-1.82;77.03
28510;BME280;15723;55.684;37.928;2023-01-16T03:36:30;100180.19;;;-1.96;76.96
28510;BME280;15723;55.684;37.928;2023-01-16T03:39:02;100190.06;;;-2.08;78.22
28510;BME280;15723;55.684;37.928;2023-01-16T03:41:30;100178.44;;;-2.00;76.60
28510;BME280;15723;55.684;37.928;2023-01-16T03:44:02;100170.34;;;-1.89;77.68
28510;BME280;15723;55.684;37.928;2023-01-16T03:46:32;100176.91;;;-2.25;77.39
28510;BME280;15723;55.684;37.928;2023-01-16T03:49:13;100163.41;;;-2.02;76.71
28510;BME280;15723;55.684;37.928;2023-01-16T03:51:45;100169.44;;;-1.83;76.38
28510;BME280;15723;55.684;37.928;2023-01-16T03:57:22;100172.19;;;-1.94;76.20
28510;BME280;15723;55.684;37.928;2023-01-16T03:59:52;100153.41;;;-1.77;77.03
28510;BME280;15723;55.684;37.928;2023-01-16T04:02:26;100156.94;;;-1.77;74.67
28510;BME280;15723;55.684;37.928;2023-01-16T04:05:16;100162.88;;;-1.53;78.01
28510;BME280;15723;55.684;37.928;2023-01-16T04:07:44;100166.63;;;-1.70;76.61
28510;BME280;15723;55.684;37.928;2023-01-16T04:10:38;100172.38;;;-1.30;76.44
28510;BME280;15723;55.684;37.928;2023-01-16T04:13:12;100163.50;;;-1.30;76.54
28510;BME280;15723;55.684;37.928;2023-01-16T04:15:45;100153.16;;;-1.56;74.41
28510;BME280;15723;55.684;37.928;2023-01-16T04:18:13;100153.97;;;-1.48;76.17
28510;BME280;15723;55.684;37.928;2023-01-16T04:20:43;100159.59;;;-1.75;75.21
28510;BME280;15723;55.684;37.928;2023-01-16T04:23:12;100155.66;;;-1.41;74.47
28510;BME280;15723;55.684;37.928;2023-01-16T04:25:39;100155.22;;;-1.79;76.61
28510;BME280;15723;55.684;37.928;2023-01-16T04:28:05;100163.41;;;-2.04;75.74
28510;BME280;15723;55.684;37.928;2023-01-16T04:30:31;100160.53;;;-1.79;75.15
28510;BME280;15723;55.684;37.928;2023-01-16T04:33:00;100169.00;;;-1.44;75.34
28510;BME280;15723;55.684;37.928;2023-01-16T04:35:27;100158.41;;;-1.51;75.16
28510;BME280;15723;55.684;37.928;2023-01-16T04:37:54;100163.88;;;-1.62;75.43
28510;BME280;15723;55.684;37.928;2023-01-16T04:40:20;100160.44;;;-1.72;75.47
28510;BME280;15723;55.684;37.928;2023-01-16T04:42:46;100158.38;;;-1.45;75.20
28510;BME280;15723;55.684;37.928;2023-01-16T04:45:12;100139.84;;;-1.56;73.86
28510;BME280;15723;55.684;37.928;2023-01-16T04:47:39;100155.56;;;-0.69;73.60
28510;BME280;15723;55.684;37.928;2023-01-16T04:50:05;100152.97;;;-0.73;70.05
28510;BME280;15723;55.684;37.928;2023-01-16T04:52:32;100145.22;;;-0.32;70.35
28510;BME280;15723;55.684;37.928;2023-01-16T04:54:58;100144.94;;;-0.16;68.77
28510;BME280;15723;55.684;37.928;2023-01-16T04:57:25;100167.19;;;-0.17;68.38
28510;BME280;15723;55.684;37.928;2023-01-16T04:59:51;100151.84;;;-0.05;69.47
28510;BME280;15723;55.684;37.928;2023-01-16T05:02:17;100134.25;;;-0.15;68.38
28510;BME280;15723;55.684;37.928;2023-01-16T05:04:43;100143.22;;;-0.19;68.57
28510;BME280;15723;55.684;37.928;2023-01-16T05:07:09;100140.31;;;-0.07;69.77
28510;BME280;15723;55.684;37.928;2023-01-16T05:09:35;100134.09;;;-0.59;66.97
28510;BME280;15723;55.684;37.928;2023-01-16T05:12:02;100160.59;;;0.05;68.41
28510;BME280;15723;55.684;37.928;2023-01-16T05:14:28;100141.53;;;-0.24;66.28
28510;BME280;15723;55.684;37.928;2023-01-16T05:16:54;100148.16;;;0.04;68.46
28510;BME280;15723;55.684;37.928;2023-01-16T05:19:20;100154.53;;;-1.23;69.83
28510;BME280;15723;55.684;37.928;2023-01-16T05:21:46;100126.75;;;-0.45;68.50
28510;BME280;15723;55.684;37.928;2023-01-16T05:24:12;100151.03;;;-0.08;68.86
28510;BME280;15723;55.684;37.928;2023-01-16T05:26:38;100115.59;;;0.31;66.93
28510;BME280;15723;55.684;37.928;2023-01-16T05:29:05;100143.66;;;0.08;67.28
28510;BME280;15723;55.684;37.928;2023-01-16T05:31:31;100146.31;;;-0.45;67.27
28510;BME280;15723;55.684;37.928;2023-01-16T05:33:57;100134.63;;;-0.38;66.41
28510;BME280;15723;55.684;37.928;2023-01-16T05:36:23;100121.06;;;-0.24;67.87
28510;BME280;15723;55.684;37.928;2023-01-16T05:38:50;100146.13;;;-0.33;67.54
28510;BME280;15723;55.684;37.928;2023-01-16T05:41:16;100147.75;;;-0.24;68.66
28510;BME280;15723;55.684;37.928;2023-01-16T05:43:42;100157.63;;;-0.89;69.24
28510;BME280;15723;55.684;37.928;2023-01-16T05:46:09;100140.84;;;-0.39;68.01
28510;BME280;15723;55.684;37.928;2023-01-16T05:48:35;100139.28;;;0.04;68.23
28510;BME280;15723;55.684;37.928;2023-01-16T05:51:05;100141.81;;;-0.43;66.22
28510;BME280;15723;55.684;37.928;2023-01-16T05:53:31;100128.84;;;-0.12;66.95
28510;BME280;15723;55.684;37.928;2023-01-16T05:55:58;100142.25;;;-0.15;67.61
28510;BME280;15723;55.684;37.928;2023-01-16T05:58:25;100140.22;;;-0.01;69.02
28510;BME280;15723;55.684;37.928;2023-01-16T06:00:51;100136.94;;;-0.70;70.02
28510;BME280;15723;55.684;37.928;2023-01-16T06:03:17;100142.31;;;-0.73;68.65
28510;BME280;15723;55.684;37.928;2023-01-16T06:05:43;100116.06;;;-0.45;67.50
28510;BME280;15723;55.684;37.928;2023-01-16T06:08:09;100144.56;;;-0.47;68.95
28510;BME280;15723;55.684;37.928;2023-01-16T06:10:35;100132.09;;;-0.47;68.86
28510;BME280;15723;55.684;37.928;2023-01-16T06:13:02;100127.72;;;-0.49;69.17
28510;BME280;15723;55.684;37.928;2023-01-16T06:15:29;100130.91;;;-0.27;68.89
28510;BME280;15723;55.684;37.928;2023-01-16T06:17:55;100150.91;;;-0.54;69.34
28510;BME280;15723;55.684;37.928;2023-01-16T06:20:21;100133.63;;;0.19;66.63
28510;BME280;15723;55.684;37.928;2023-01-16T06:22:48;100138.38;;;0.05;67.86
28510;BME280;15723;55.684;37.928;2023-01-16T06:25:14;100143.34;;;-0.26;67.60
28510;BME280;15723;55.684;37.928;2023-01-16T06:27:40;100130.78;;;-0.20;67.73
28510;BME280;15723;55.684;37.928;2023-01-16T06:30:07;100132.84;;;-0.39;66.18
28510;BME280;15723;55.684;37.928;2023-01-16T06:32:33;100114.22;;;-0.40;67.14
28510;BME280;15723;55.684;37.928;2023-01-16T06:35:00;100123.94;;;-0.38;67.31
28510;BME280;15723;55.684;37.928;2023-01-16T06:37:26;100138.94;;;-0.86;68.90
28510;BME280;15723;55.684;37.928;2023-01-16T06:39:52;100135.25;;;-0.20;67.54
28510;BME280;15723;55.684;37.928;2023-01-16T06:42:18;100136.75;;;-0.06;67.17
28510;BME280;15723;55.684;37.928;2023-01-16T06:44:45;100130.72;;;-0.17;67.28
28510;BME280;15723;55.684;37.928;2023-01-16T06:47:11;100136.31;;;0.19;66.98
28510;BME280;15723;55.684;37.928;2023-01-16T06:49:38;100139.53;;;-0.12;64.98
28510;BME280;15723;55.684;37.928;2023-01-16T06:52:04;100143.81;;;-0.03;65.86
28510;BME280;15723;55.684;37.928;2023-01-16T06:54:30;100128.38;;;0.16;65.92
28510;BME280;15723;55.684;37.928;2023-01-16T06:56:56;100141.00;;;0.06;66.34
28510;BME280;15723;55.684;37.928;2023-01-16T06:59:22;100132.53;;;0.29;65.90
28510;BME280;15723;55.684;37.928;2023-01-16T07:01:48;100134.84;;;0.03;65.50
28510;BME280;15723;55.684;37.928;2023-01-16T07:04:15;100132.34;;;-0.08;66.40
28510;BME280;15723;55.684;37.928;2023-01-16T07:06:41;100132.91;;;0.11;65.81
28510;BME280;15723;55.684;37.928;2023-01-16T07:09:10;100127.19;;;0.30;65.01
28510;BME280;15723;55.684;37.928;2023-01-16T07:11:37;100140.22;;;-0.02;65.77
28510;BME280;15723;55.684;37.928;2023-01-16T07:14:04;100131.13;;;0.11;64.57
28510;BME280;15723;55.684;37.928;2023-01-16T07:16:48;100145.75;;;0.37;65.44
28510;BME280;15723;55.684;37.928;2023-01-16T07:19:33;100147.59;;;-0.15;66.15
28510;BME280;15723;55.684;37.928;2023-01-16T07:22:18;100153.78;;;0.35;66.00
28510;BME280;15723;55.684;37.928;2023-01-16T07:25:08;100147.16;;;0.56;63.89
28510;BME280;15723;55.684;37.928;2023-01-16T07:27:35;100160.31;;;-0.89;66.50
28510;BME280;15723;55.684;37.928;2023-01-16T07:30:01;100143.69;;;0.06;66.59
28510;BME280;15723;55.684;37.928;2023-01-16T07:32:29;100136.38;;;-0.35;64.93
28510;BME280;15723;55.684;37.928;2023-01-16T07:34:55;100151.22;;;-0.19;66.00
28510;BME280;15723;55.684;37.928;2023-01-16T07:37:21;100132.72;;;0.20;64.63
28510;BME280;15723;55.684;37.928;2023-01-16T07:39:47;100151.25;;;-0.20;66.27
28510;BME280;15723;55.684;37.928;2023-01-16T07:42:14;100150.34;;;0.30;65.40
28510;BME280;15723;55.684;37.928;2023-01-16T07:44:40;100125.75;;;-0.37;65.25
28510;BME280;15723;55.684;37.928;2023-01-16T07:47:06;100150.38;;;0.27;64.33
28510;BME280;15723;55.684;37.928;2023-01-16T07:49:32;100153.84;;;0.32;64.76
28510;BME280;15723;55.684;37.928;2023-01-16T07:51:58;100157.31;;;0.39;65.73
28510;BME280;15723;55.684;37.928;2023-01-16T07:54:24;100152.41;;;0.60;64.38
28510;BME280;15723;55.684;37.928;2023-01-16T07:56:50;100150.06;;;0.45;64.92
28510;BME280;15723;55.684;37.928;2023-01-16T07:59:17;100141.88;;;0.07;63.94
28510;BME280;15723;55.684;37.928;2023-01-16T08:01:43;100150.09;;;0.44;63.92
28510;BME280;15723;55.684;37.928;2023-01-16T08:04:11;100143.00;;;-0.08;65.87
28510;BME280;15723;55.684;37.928;2023-01-16T08:06:37;100144.53;;;0.54;64.82
28510;BME280;15723;55.684;37.928;2023-01-16T08:09:09;100140.56;;;0.29;64.94
28510;BME280;15723;55.684;37.928;2023-01-16T08:11:36;100130.84;;;0.25;64.94
28510;BME280;15723;55.684;37.928;2023-01-16T08:14:03;100131.63;;;-0.72;67.04
28510;BME280;15723;55.684;37.928;2023-01-16T08:16:29;100149.97;;;0.02;66.27
28510;BME280;15723;55.684;37.928;2023-01-16T08:18:55;100148.31;;;0.43;66.14
28510;BME280;15723;55.684;37.928;2023-01-16T08:21:21;100142.59;;;0.16;64.97
28510;BME280;15723;55.684;37.928;2023-01-16T08:23:48;100137.59;;;0.44;64.87
28510;BME280;15723;55.684;37.928;2023-01-16T08:26:14;100141.31;;;0.36;65.61
28510;BME280;15723;55.684;37.928;2023-01-16T08:28:41;100135.53;;;0.14;64.47
28510;BME280;15723;55.684;37.928;2023-01-16T08:31:09;100133.44;;;0.29;65.81
28510;BME280;15723;55.684;37.928;2023-01-16T08:33:38;100138.59;;;-0.09;65.03
28510;BME280;15723;55.684;37.928;2023-01-16T08:36:06;100146.09;;;0.18;64.91
28510;BME280;15723;55.684;37.928;2023-01-16T08:38:33;100149.69;;;0.17;66.00
28510;BME280;15723;55.684;37.928;2023-01-16T08:41:00;100145.44;;;0.53;63.43
28510;BME280;15723;55.684;37.928;2023-01-16T08:43:26;100138.91;;;0.22;63.60
28510;BME280;15723;55.684;37.928;2023-01-16T08:46:21;100145.31;;;0.13;64.50
28510;BME280;15723;55.684;37.928;2023-01-16T08:49:14;100140.59;;;0.27;64.13
28510;BME280;15723;55.684;37.928;2023-01-16T08:51:59;100130.31;;;0.06;64.49
28510;BME280;15723;55.684;37.928;2023-01-16T08:54:26;100128.59;;;0.50;64.87
28510;BME280;15723;55.684;37.928;2023-01-16T08:56:52;100130.25;;;0.55;63.75
28510;BME280;15723;55.684;37.928;2023-01-16T08:59:18;100137.78;;;0.80;63.13
28510;BME280;15723;55.684;37.928;2023-01-16T09:01:44;100126.22;;;0.33;65.14
28510;BME280;15723;55.684;37.928;2023-01-16T09:04:10;100143.50;;;0.60;65.20
28510;BME280;15723;55.684;37.928;2023-01-16T09:06:36;100132.53;;;0.75;63.48
28510;BME280;15723;55.684;37.928;2023-01-16T09:09:05;100137.69;;;0.84;62.85
28510;BME280;15723;55.684;37.928;2023-01-16T09:11:32;100141.09;;;0.48;63.67
28510;BME280;15723;55.684;37.928;2023-01-16T09:14:17;100144.19;;;0.70;63.63
28510;BME280;15723;55.684;37.928;2023-01-16T09:16:43;100129.69;;;0.83;64.19
28510;BME280;15723;55.684;37.928;2023-01-16T09:19:10;100140.03;;;0.56;65.06
28510;BME280;15723;55.684;37.928;2023-01-16T09:21:36;100138.38;;;0.51;64.48
28510;BME280;15723;55.684;37.928;2023-01-16T09:24:02;100132.63;;;0.69;63.26
28510;BME280;15723;55.684;37.928;2023-01-16T09:26:29;100142.88;;;0.47;63.04
28510;BME280;15723;55.684;37.928;2023-01-16T09:28:57;100138.25;;;0.57;64.12
28510;BME280;15723;55.684;37.928;2023-01-16T09:31:23;100133.78;;;0.57;63.24
28510;BME280;15723;55.684;37.928;2023-01-16T09:33:49;100127.94;;;-0.11;65.01
28510;BME280;15723;55.684;37.928;2023-01-16T09:36:17;100126.34;;;-0.21;63.18
28510;BME280;15723;55.684;37.928;2023-01-16T09:38:43;100117.53;;;0.23;65.78
28510;BME280;15723;55.684;37.928;2023-01-16T09:41:14;100121.06;;;0.25;65.25
28510;BME280;15723;55.684;37.928;2023-01-16T09:44:02;100106.22;;;0.55;63.96
28510;BME280;15723;55.684;37.928;2023-01-16T09:46:30;100107.22;;;0.91;63.24
28510;BME280;15723;55.684;37.928;2023-01-16T09:49:05;100110.00;;;0.87;64.89
28510;BME280;15723;55.684;37.928;2023-01-16T09:51:41;100097.56;;;0.86;63.30
28510;BME280;15723;55.684;37.928;2023-01-16T09:54:35;100091.75;;;1.06;63.06
28510;BME280;15723;55.684;37.928;2023-01-16T09:57:26;100084.97;;;0.49;64.16
28510;BME280;15723;55.684;37.928;2023-01-16T10:00:28;100084.16;;;0.87;63.69
28510;BME280;15723;55.684;37.928;2023-01-16T10:02:55;100085.19;;;1.20;63.76
28510;BME280;15723;55.684;37.928;2023-01-16T10:05:25;100081.81;;;1.83;63.75
28510;BME280;15723;55.684;37.928;2023-01-16T10:18:24;100069.84;;;1.64;61.33
28510;BME280;15723;55.684;37.928;2023-01-16T10:23:52;100094.34;;;-0.21;64.71
28510;BME280;15723;55.684;37.928;2023-01-16T10:26:27;100072.81;;;1.16;65.37
28510;BME280;15723;55.684;37.928;2023-01-16T10:31:35;100059.53;;;0.30;64.91
28510;BME280;15723;55.684;37.928;2023-01-16T10:34:19;100067.81;;;0.61;64.92
28510;BME280;15723;55.684;37.928;2023-01-16T10:36:52;100058.63;;;0.73;64.48
28510;BME280;15723;55.684;37.928;2023-01-16T10:39:30;100063.97;;;1.13;64.01
28510;BME280;15723;55.684;37.928;2023-01-16T10:47:59;100042.13;;;0.94;65.00
28510;BME280;15723;55.684;37.928;2023-01-16T10:50:45;100047.06;;;1.12;61.86
28510;BME280;15723;55.684;37.928;2023-01-16T10:53:12;100062.09;;;0.36;65.03
28510;BME280;15723;55.684;37.928;2023-01-16T10:55:42;100072.69;;;0.82;66.10
28510;BME280;15723;55.684;37.928;2023-01-16T10:58:34;100072.28;;;0.99;64.25
28510;BME280;15723;55.684;37.928;2023-01-16T11:01:22;100065.00;;;1.06;63.12
28510;BME280;15723;55.684;37.928;2023-01-16T11:03:54;100067.97;;;0.93;65.01
28510;BME280;15723;55.684;37.928;2023-01-16T11:06:23;100071.38;;;1.00;64.47
28510;BME280;15723;55.684;37.928;2023-01-16T11:08:54;100076.69;;;1.02;63.95
28510;BME280;15723;55.684;37.928;2023-01-16T11:11:21;100073.59;;;0.81;62.67
28510;BME280;15723;55.684;37.928;2023-01-16T11:14:44;100076.03;;;0.92;62.32
28510;BME280;15723;55.684;37.928;2023-01-16T11:17:34;100067.66;;;1.07;63.67
28510;BME280;15723;55.684;37.928;2023-01-16T11:20:31;100055.81;;;-0.06;62.58
28510;BME280;15723;55.684;37.928;2023-01-16T11:23:20;100065.09;;;0.62;63.75
28510;BME280;15723;55.684;37.928;2023-01-16T11:25:47;100064.97;;;1.07;63.48
28510;BME280;15723;55.684;37.928;2023-01-16T11:28:20;100056.63;;;0.84;65.16
28510;BME280;15723;55.684;37.928;2023-01-16T11:30:52;100067.88;;;0.58;63.98
28510;BME280;15723;55.684;37.928;2023-01-16T11:33:21;100065.13;;;0.61;65.15
28510;BME280;15723;55.684;37.928;2023-01-16T11:35:54;100067.34;;;0.82;63.48
28510;BME280;15723;55.684;37.928;2023-01-16T11:38:23;100077.94;;;-0.01;64.71
28510;BME280;15723;55.684;37.928;2023-01-16T11:40:52;100071.53;;;-0.40;65.11
28510;BME280;15723;55.684;37.928;2023-01-16T11:43:25;100073.31;;;-0.95;68.18
28510;BME280;15723;55.684;37.928;2023-01-16T11:48:59;100061.16;;;-0.06;67.58
28510;BME280;15723;55.684;37.928;2023-01-16T11:51:31;100068.94;;;0.49;64.14
28510;BME280;15723;55.684;37.928;2023-01-16T11:54:00;100065.41;;;0.04;65.00
28510;BME280;15723;55.684;37.928;2023-01-16T11:56:39;100067.22;;;-0.47;67.08
28510;BME280;15723;55.684;37.928;2023-01-16T12:08:47;100069.28;;;-1.21;68.79
28510;BME280;15723;55.684;37.928;2023-01-16T12:12:12;100049.97;;;-0.26;67.93
28510;BME280;15723;55.684;37.928;2023-01-16T12:14:43;100064.00;;;-1.24;67.96
28510;BME280;15723;55.684;37.928;2023-01-16T12:25:04;100077.72;;;-0.38;68.21
28510;BME280;15723;55.684;37.928;2023-01-16T12:27:46;100069.44;;;-0.21;67.27
28510;BME280;15723;55.684;37.928;2023-01-16T12:33:43;100073.19;;;0.16;65.04
28510;BME280;15723;55.684;37.928;2023-01-16T12:41:43;100083.38;;;0.41;65.99
28510;BME280;15723;55.684;37.928;2023-01-16T12:48:00;100096.88;;;-0.66;69.00
28510;BME280;15723;55.684;37.928;2023-01-16T12:59:17;100062.59;;;-1.53;70.47
28510;BME280;15723;55.684;37.928;2023-01-16T13:01:47;100073.13;;;-1.41;71.92
28510;BME280;15723;55.684;37.928;2023-01-16T13:04:29;100070.59;;;-1.53;71.03
28510;BME280;15723;55.684;37.928;2023-01-16T13:07:00;100051.69;;;-0.76;72.32
28510;BME280;15723;55.684;37.928;2023-01-16T13:12:44;100061.34;;;-1.26;72.99
28510;BME280;15723;55.684;37.928;2023-01-16T13:15:33;100067.16;;;-0.97;71.28
28510;BME280;15723;55.684;37.928;2023-01-16T13:18:10;100061.97;;;-1.06;72.53
28510;BME280;15723;55.684;37.928;2023-01-16T13:20:38;100071.25;;;-0.23;70.97
28510;BME280;15723;55.684;37.928;2023-01-16T13:23:37;100058.56;;;-0.11;71.90
28510;BME280;15723;55.684;37.928;2023-01-16T13:26:14;100063.19;;;-0.70;71.37
28510;BME280;15723;55.684;37.928;2023-01-16T13:31:54;100063.63;;;0.05;68.87
28510;BME280;15723;55.684;37.928;2023-01-16T13:34:35;100061.59;;;-0.29;68.73
28510;BME280;15723;55.684;37.928;2023-01-16T13:37:17;100053.06;;;-0.03;69.60
28510;BME280;15723;55.684;37.928;2023-01-16T13:41:03;100053.72;;;0.11;70.45
28510;BME280;15723;55.684;37.928;2023-01-16T13:43:01;100060.06;;;0.06;69.28
28510;BME280;15723;55.684;37.928;2023-01-16T13:45:52;100053.63;;;0.16;71.00
28510;BME280;15723;55.684;37.928;2023-01-16T13:48:21;100057.66;;;-0.10;70.57
28510;BME280;15723;55.684;37.928;2023-01-16T13:50:55;100062.59;;;-0.36;68.66
28510;BME280;15723;55.684;37.928;2023-01-16T13:53:26;100059.34;;;-1.09;71.23
28510;BME280;15723;55.684;37.928;2023-01-16T13:56:08;100053.75;;;-0.40;72.57
28510;BME280;15723;55.684;37.928;2023-01-16T13:58:48;100041.38;;;-0.44;71.78
28510;BME280;15723;55.684;37.928;2023-01-16T14:01:35;100054.38;;;-0.76;73.46
28510;BME280;15723;55.684;37.928;2023-01-16T14:04:30;100047.94;;;-0.14;70.32
28510;BME280;15723;55.684;37.928;2023-01-16T14:07:01;100040.13;;;-1.32;74.10
28510;BME280;15723;55.684;37.928;2023-01-16T14:10:15;100053.69;;;-1.47;73.76
28510;BME280;15723;55.684;37.928;2023-01-16T14:13:00;100047.66;;;-1.63;75.71
28510;BME280;15723;55.684;37.928;2023-01-16T14:18:40;100048.56;;;-1.64;76.81
28510;BME280;15723;55.684;37.928;2023-01-16T14:21:20;100053.03;;;-1.68;77.67
28510;BME280;15723;55.684;37.928;2023-01-16T14:23:50;100023.84;;;-1.74;77.18
28510;BME280;15723;55.684;37.928;2023-01-16T14:29:01;100043.31;;;-1.70;77.16
28510;BME280;15723;55.684;37.928;2023-01-16T14:31:42;100045.00;;;-1.63;77.67
28510;BME280;15723;55.684;37.928;2023-01-16T14:34:17;100045.19;;;-1.77;78.91
28510;BME280;15723;55.684;37.928;2023-01-16T14:36:44;100050.28;;;-1.60;77.70
28510;BME280;15723;55.684;37.928;2023-01-16T14:39:35;100066.66;;;-1.94;77.51
28510;BME280;15723;55.684;37.928;2023-01-16T14:42:20;100052.03;;;-1.59;77.84
28510;BME280;15723;55.684;37.928;2023-01-16T14:54:31;100047.91;;;-1.83;76.54
28510;BME280;15723;55.684;37.928;2023-01-16T15:02:31;100043.16;;;-1.60;75.22
28510;BME280;15723;55.684;37.928;2023-01-16T15:07:58;100054.88;;;-1.71;77.94
28510;BME280;15723;55.684;37.928;2023-01-16T15:10:36;100058.97;;;-1.44;76.62
28510;BME280;15723;55.684;37.928;2023-01-16T15:13:31;100047.81;;;-1.75;77.58
28510;BME280;15723;55.684;37.928;2023-01-16T15:16:20;100047.34;;;-1.39;76.75
28510;BME280;15723;55.684;37.928;2023-01-16T15:19:20;100058.22;;;-1.57;76.27
28510;BME280;15723;55.684;37.928;2023-01-16T15:22:30;100053.63;;;-1.43;76.39
28510;BME280;15723;55.684;37.928;2023-01-16T15:25:19;100052.75;;;-1.45;76.64
28510;BME280;15723;55.684;37.928;2023-01-16T15:30:31;100047.28;;;-1.36;75.42
28510;BME280;15723;55.684;37.928;2023-01-16T15:32:59;100051.00;;;-1.47;76.25
28510;BME280;15723;55.684;37.928;2023-01-16T15:35:44;100047.81;;;-1.12;75.62